Terminal Aerodrome Forecast
Issued by NWS

Current Version | Previous Version | Text Only | Print | Product List | Glossary Off
Versions: 1 2 3 4 5 6 7 8 9 10 11 12 13 14 15 16 17 18 19 20

000
FTUS41 KPBZ 021720
TAFHLG
TAF
KHLG 021720Z 0218/0318 24008G16KT P6SM BKN045
     FM030300 21005KT P6SM SCT250
     FM031500 23010KT P6SM VCSH BKN050=

USA.gov is the U.S. government's official web portal to all federal, state and local government web resources and services.